sensor_id;sensor_type;location;lat;lon;timestamp;P1;durP1;ratioP1;P2;durP2;ratioP2
55150;SDS011;41041;43.162;20.538;2023-08-07T00:08:41;7.07;;;1.55;;
55150;SDS011;41041;43.162;20.538;2023-08-07T00:11:09;4.30;;;1.30;;
55150;SDS011;41041;43.162;20.538;2023-08-07T00:13:37;2.70;;;1.25;;
55150;SDS011;41041;43.162;20.538;2023-08-07T00:16:03;8.40;;;1.83;;
55150;SDS011;41041;43.162;20.538;2023-08-07T00:18:29;2.95;;;1.23;;
55150;SDS011;41041;43.162;20.538;2023-08-07T00:20:55;4.60;;;1.50;;
55150;SDS011;41041;43.162;20.538;2023-08-07T00:23:21;5.10;;;1.17;;
55150;SDS011;41041;43.162;20.538;2023-08-07T00:25:51;2.15;;;1.23;;
55150;SDS011;41041;43.162;20.538;2023-08-07T00:30:43;5.10;;;1.55;;
55150;SDS011;41041;43.162;20.538;2023-08-07T00:33:09;4.15;;;1.40;;
55150;SDS011;41041;43.162;20.538;2023-08-07T00:35:38;4.88;;;1.60;;
55150;SDS011;41041;43.162;20.538;2023-08-07T02:37:15;10.93;;;2.40;;
55150;SDS011;41041;43.162;20.538;2023-08-07T02:39:42;7.47;;;3.03;;
55150;SDS011;41041;43.162;20.538;2023-08-07T02:42:08;9.02;;;3.70;;
55150;SDS011;41041;43.162;20.538;2023-08-07T02:44:34;7.28;;;3.55;;
55150;SDS011;41041;43.162;20.538;2023-08-07T02:47:03;8.50;;;3.65;;
55150;SDS011;41041;43.162;20.538;2023-08-07T02:57:31;7.38;;;3.00;;
55150;SDS011;41041;43.162;20.538;2023-08-07T03:02:50;7.97;;;3.15;;
55150;SDS011;41041;43.162;20.538;2023-08-07T03:13:03;4.30;;;2.08;;
55150;SDS011;41041;43.162;20.538;2023-08-07T03:18:08;5.80;;;2.20;;
55150;SDS011;41041;43.162;20.538;2023-08-07T03:20:36;5.50;;;2.28;;
55150;SDS011;41041;43.162;20.538;2023-08-07T03:23:02;4.38;;;2.10;;
55150;SDS011;41041;43.162;20.538;2023-08-07T03:25:28;4.38;;;2.38;;
55150;SDS011;41041;43.162;20.538;2023-08-07T03:52:15;7.45;;;2.40;;
55150;SDS011;41041;43.162;20.538;2023-08-07T03:54:43;5.40;;;2.20;;
55150;SDS011;41041;43.162;20.538;2023-08-07T03:57:12;3.22;;;2.00;;
55150;SDS011;41041;43.162;20.538;2023-08-07T03:59:38;4.07;;;2.00;;
55150;SDS011;41041;43.162;20.538;2023-08-07T04:20:40;2.72;;;1.85;;
55150;SDS011;41041;43.162;20.538;2023-08-07T04:31:13;5.72;;;1.70;;
55150;SDS011;41041;43.162;20.538;2023-08-07T04:33:39;3.13;;;1.60;;
55150;SDS011;41041;43.162;20.538;2023-08-07T04:38:55;5.28;;;1.75;;
55150;SDS011;41041;43.162;20.538;2023-08-07T04:47:01;7.45;;;1.50;;
55150;SDS011;41041;43.162;20.538;2023-08-07T04:49:27;3.63;;;1.70;;
55150;SDS011;41041;43.162;20.538;2023-08-07T04:51:53;3.85;;;1.90;;
55150;SDS011;41041;43.162;20.538;2023-08-07T04:54:19;4.75;;;1.65;;
55150;SDS011;41041;43.162;20.538;2023-08-07T04:56:45;4.00;;;1.45;;
55150;SDS011;41041;43.162;20.538;2023-08-07T04:59:11;5.20;;;1.60;;
55150;SDS011;41041;43.162;20.538;2023-08-07T05:01:42;3.72;;;1.42;;
55150;SDS011;41041;43.162;20.538;2023-08-07T05:04:08;3.13;;;1.40;;
55150;SDS011;41041;43.162;20.538;2023-08-07T05:06:34;4.38;;;1.80;;
55150;SDS011;41041;43.162;20.538;2023-08-07T05:09:00;9.00;;;2.15;;
55150;SDS011;41041;43.162;20.538;2023-08-07T05:11:26;6.43;;;2.55;;
55150;SDS011;41041;43.162;20.538;2023-08-07T05:13:53;4.75;;;2.20;;
55150;SDS011;41041;43.162;20.538;2023-08-07T05:16:18;5.90;;;2.10;;
55150;SDS011;41041;43.162;20.538;2023-08-07T05:18:58;5.68;;;2.22;;
55150;SDS011;41041;43.162;20.538;2023-08-07T05:21:24;4.05;;;2.25;;
55150;SDS011;41041;43.162;20.538;2023-08-07T05:23:51;5.85;;;2.50;;
55150;SDS011;41041;43.162;20.538;2023-08-07T05:26:20;4.97;;;2.38;;
55150;SDS011;41041;43.162;20.538;2023-08-07T05:28:46;4.90;;;2.42;;
55150;SDS011;41041;43.162;20.538;2023-08-07T05:31:12;6.75;;;2.40;;
55150;SDS011;41041;43.162;20.538;2023-08-07T05:33:38;4.97;;;1.92;;
55150;SDS011;41041;43.162;20.538;2023-08-07T05:36:05;8.90;;;2.38;;
55150;SDS011;41041;43.162;20.538;2023-08-07T05:38:31;6.07;;;2.40;;
55150;SDS011;41041;43.162;20.538;2023-08-07T05:40:57;7.57;;;2.90;;
55150;SDS011;41041;43.162;20.538;2023-08-07T05:43:23;4.97;;;2.70;;
55150;SDS011;41041;43.162;20.538;2023-08-07T05:45:49;11.05;;;3.00;;
55150;SDS011;41041;43.162;20.538;2023-08-07T05:48:16;5.60;;;2.63;;
55150;SDS011;41041;43.162;20.538;2023-08-07T05:50:42;12.88;;;2.78;;
55150;SDS011;41041;43.162;20.538;2023-08-07T05:53:08;7.85;;;2.70;;
55150;SDS011;41041;43.162;20.538;2023-08-07T05:55:34;5.72;;;2.75;;
55150;SDS011;41041;43.162;20.538;2023-08-07T05:58:01;6.45;;;2.40;;
55150;SDS011;41041;43.162;20.538;2023-08-07T06:00:26;7.10;;;2.38;;
55150;SDS011;41041;43.162;20.538;2023-08-07T06:02:53;5.75;;;3.05;;
55150;SDS011;41041;43.162;20.538;2023-08-07T06:05:19;6.22;;;3.22;;
55150;SDS011;41041;43.162;20.538;2023-08-07T06:07:45;5.88;;;3.55;;
55150;SDS011;41041;43.162;20.538;2023-08-07T06:10:11;7.35;;;2.28;;
55150;SDS011;41041;43.162;20.538;2023-08-07T06:34:58;8.77;;;2.85;;
55150;SDS011;41041;43.162;20.538;2023-08-07T06:40:39;9.02;;;3.38;;
55150;SDS011;41041;43.162;20.538;2023-08-07T06:43:07;13.98;;;4.40;;
55150;SDS011;41041;43.162;20.538;2023-08-07T06:45:54;12.90;;;4.45;;
55150;SDS011;41041;43.162;20.538;2023-08-07T06:48:21;15.18;;;4.70;;
55150;SDS011;41041;43.162;20.538;2023-08-07T06:50:56;11.57;;;4.32;;
55150;SDS011;41041;43.162;20.538;2023-08-07T06:53:22;13.32;;;3.50;;
55150;SDS011;41041;43.162;20.538;2023-08-07T10:48:56;3.70;;;2.40;;
55150;SDS011;41041;43.162;20.538;2023-08-07T10:51:23;2.90;;;2.20;;
55150;SDS011;41041;43.162;20.538;2023-08-07T10:54:06;3.20;;;2.30;;
55150;SDS011;41041;43.162;20.538;2023-08-07T11:11:52;5.47;;;2.90;;
55150;SDS011;41041;43.162;20.538;2023-08-07T11:17:30;4.25;;;2.80;;
55150;SDS011;41041;43.162;20.538;2023-08-07T11:29:17;5.20;;;2.63;;
55150;SDS011;41041;43.162;20.538;2023-08-07T11:31:43;7.00;;;3.40;;
55150;SDS011;41041;43.162;20.538;2023-08-07T11:34:13;6.97;;;3.63;;
55150;SDS011;41041;43.162;20.538;2023-08-07T11:39:30;9.82;;;4.90;;
55150;SDS011;41041;43.162;20.538;2023-08-07T11:41:56;11.20;;;5.68;;
55150;SDS011;41041;43.162;20.538;2023-08-07T11:51:08;9.90;;;4.75;;
55150;SDS011;41041;43.162;20.538;2023-08-07T12:30:49;8.35;;;4.43;;
55150;SDS011;41041;43.162;20.538;2023-08-07T12:33:16;8.63;;;4.18;;
55150;SDS011;41041;43.162;20.538;2023-08-07T12:35:42;9.45;;;2.88;;
55150;SDS011;41041;43.162;20.538;2023-08-07T12:55:20;6.53;;;2.88;;
55150;SDS011;41041;43.162;20.538;2023-08-07T12:57:46;3.88;;;2.50;;
55150;SDS011;41041;43.162;20.538;2023-08-07T13:10:35;5.07;;;2.30;;
55150;SDS011;41041;43.162;20.538;2023-08-07T13:13:01;3.03;;;1.95;;
55150;SDS011;41041;43.162;20.538;2023-08-07T13:15:29;2.30;;;1.70;;
55150;SDS011;41041;43.162;20.538;2023-08-07T13:17:55;3.90;;;2.05;;
55150;SDS011;41041;43.162;20.538;2023-08-07T13:20:21;2.92;;;1.77;;
55150;SDS011;41041;43.162;20.538;2023-08-07T13:22:47;3.42;;;2.38;;
55150;SDS011;41041;43.162;20.538;2023-08-07T13:25:14;2.30;;;1.85;;
55150;SDS011;41041;43.162;20.538;2023-08-07T13:31:03;1.90;;;1.30;;
55150;SDS011;41041;43.162;20.538;2023-08-07T13:33:29;1.60;;;1.30;;
55150;SDS011;41041;43.162;20.538;2023-08-07T13:35:54;2.88;;;1.50;;
55150;SDS011;41041;43.162;20.538;2023-08-07T13:45:02;5.20;;;1.58;;
55150;SDS011;41041;43.162;20.538;2023-08-07T13:54:39;3.35;;;1.00;;
55150;SDS011;41041;43.162;20.538;2023-08-07T14:00:27;2.13;;;1.15;;
55150;SDS011;41041;43.162;20.538;2023-08-07T14:02:53;5.25;;;2.67;;
55150;SDS011;41041;43.162;20.538;2023-08-07T14:05:19;4.43;;;2.20;;
55150;SDS011;41041;43.162;20.538;2023-08-07T14:17:44;4.90;;;1.52;;
55150;SDS011;41041;43.162;20.538;2023-08-07T14:26:51;4.18;;;1.65;;
55150;SDS011;41041;43.162;20.538;2023-08-07T14:29:17;4.47;;;1.70;;
55150;SDS011;41041;43.162;20.538;2023-08-07T14:34:33;2.35;;;1.35;;
55150;SDS011;41041;43.162;20.538;2023-08-07T14:36:59;3.75;;;1.70;;
55150;SDS011;41041;43.162;20.538;2023-08-07T14:42:47;4.10;;;1.85;;
55150;SDS011;41041;43.162;20.538;2023-08-07T14:45:14;3.78;;;1.45;;
55150;SDS011;41041;43.162;20.538;2023-08-07T14:47:40;3.60;;;1.77;;
55150;SDS011;41041;43.162;20.538;2023-08-07T14:50:06;3.03;;;1.80;;
55150;SDS011;41041;43.162;20.538;2023-08-07T14:52:32;2.33;;;1.60;;
55150;SDS011;41041;43.162;20.538;2023-08-07T14:54:58;3.22;;;1.73;;
55150;SDS011;41041;43.162;20.538;2023-08-07T15:00:46;9.30;;;3.63;;
55150;SDS011;41041;43.162;20.538;2023-08-07T15:03:12;7.05;;;3.67;;
55150;SDS011;41041;43.162;20.538;2023-08-07T15:05:37;4.85;;;2.15;;
55150;SDS011;41041;43.162;20.538;2023-08-07T15:11:25;3.63;;;2.20;;
55150;SDS011;41041;43.162;20.538;2023-08-07T15:13:51;8.63;;;2.72;;
55150;SDS011;41041;43.162;20.538;2023-08-07T15:16:17;6.43;;;2.90;;
55150;SDS011;41041;43.162;20.538;2023-08-07T15:18:43;6.35;;;2.70;;
55150;SDS011;41041;43.162;20.538;2023-08-07T15:21:10;4.68;;;2.80;;
55150;SDS011;41041;43.162;20.538;2023-08-07T15:23:36;6.28;;;3.00;;
55150;SDS011;41041;43.162;20.538;2023-08-07T15:26:02;4.65;;;2.22;;
55150;SDS011;41041;43.162;20.538;2023-08-07T15:28:29;4.63;;;2.63;;
55150;SDS011;41041;43.162;20.538;2023-08-07T15:41:17;10.00;;;4.03;;
55150;SDS011;41041;43.162;20.538;2023-08-07T15:46:10;4.95;;;2.60;;
55150;SDS011;41041;43.162;20.538;2023-08-07T15:48:36;4.25;;;2.40;;
55150;SDS011;41041;43.162;20.538;2023-08-07T15:51:02;3.90;;;2.47;;
55150;SDS011;41041;43.162;20.538;2023-08-07T15:53:42;5.60;;;3.08;;
55150;SDS011;41041;43.162;20.538;2023-08-07T15:56:09;5.15;;;2.85;;
55150;SDS011;41041;43.162;20.538;2023-08-07T15:58:35;5.97;;;3.10;;
55150;SDS011;41041;43.162;20.538;2023-08-07T16:01:06;4.80;;;2.63;;
55150;SDS011;41041;43.162;20.538;2023-08-07T16:06:43;5.45;;;2.70;;
55150;SDS011;41041;43.162;20.538;2023-08-07T16:15:50;4.85;;;3.20;;
55150;SDS011;41041;43.162;20.538;2023-08-07T16:18:16;6.60;;;3.10;;
55150;SDS011;41041;43.162;20.538;2023-08-07T16:20:42;6.75;;;3.00;;
55150;SDS011;41041;43.162;20.538;2023-08-07T16:23:09;8.15;;;3.15;;
55150;SDS011;41041;43.162;20.538;2023-08-07T16:25:35;5.80;;;3.33;;
55150;SDS011;41041;43.162;20.538;2023-08-07T16:28:11;5.18;;;3.70;;
55150;SDS011;41041;43.162;20.538;2023-08-07T16:34:15;3.42;;;2.30;;
55150;SDS011;41041;43.162;20.538;2023-08-07T16:40:23;3.42;;;2.05;;
55150;SDS011;41041;43.162;20.538;2023-08-07T16:49:40;8.60;;;3.17;;
55150;SDS011;41041;43.162;20.538;2023-08-07T16:52:06;9.63;;;2.95;;
55150;SDS011;41041;43.162;20.538;2023-08-07T16:54:33;10.95;;;3.17;;
55150;SDS011;41041;43.162;20.538;2023-08-07T16:57:03;8.10;;;2.92;;
55150;SDS011;41041;43.162;20.538;2023-08-07T16:59:30;5.38;;;2.58;;
55150;SDS011;41041;43.162;20.538;2023-08-07T17:01:56;4.88;;;2.15;;
55150;SDS011;41041;43.162;20.538;2023-08-07T17:04:22;4.50;;;1.77;;
55150;SDS011;41041;43.162;20.538;2023-08-07T17:06:48;4.38;;;1.77;;
55150;SDS011;41041;43.162;20.538;2023-08-07T17:09:18;5.95;;;1.77;;
55150;SDS011;41041;43.162;20.538;2023-08-07T17:11:44;2.72;;;1.90;;
55150;SDS011;41041;43.162;20.538;2023-08-07T17:14:10;3.67;;;2.10;;
55150;SDS011;41041;43.162;20.538;2023-08-07T17:16:36;5.30;;;2.15;;
55150;SDS011;41041;43.162;20.538;2023-08-07T17:19:02;2.88;;;1.77;;
55150;SDS011;41041;43.162;20.538;2023-08-07T17:21:28;4.05;;;1.50;;
55150;SDS011;41041;43.162;20.538;2023-08-07T17:23:54;3.30;;;1.63;;
55150;SDS011;41041;43.162;20.538;2023-08-07T17:26:20;4.00;;;1.60;;
55150;SDS011;41041;43.162;20.538;2023-08-07T17:28:48;3.95;;;1.60;;
55150;SDS011;41041;43.162;20.538;2023-08-07T17:34:36;4.13;;;2.42;;
55150;SDS011;41041;43.162;20.538;2023-08-07T17:37:02;6.22;;;3.15;;
55150;SDS011;41041;43.162;20.538;2023-08-07T17:39:28;7.45;;;2.40;;
55150;SDS011;41041;43.162;20.538;2023-08-07T17:41:55;5.63;;;2.10;;
55150;SDS011;41041;43.162;20.538;2023-08-07T17:44:21;4.68;;;2.10;;
55150;SDS011;41041;43.162;20.538;2023-08-07T17:46:46;6.88;;;2.03;;
55150;SDS011;41041;43.162;20.538;2023-08-07T17:49:12;6.30;;;2.22;;
55150;SDS011;41041;43.162;20.538;2023-08-07T17:51:38;4.30;;;2.10;;
55150;SDS011;41041;43.162;20.538;2023-08-07T17:54:04;5.57;;;2.90;;
55150;SDS011;41041;43.162;20.538;2023-08-07T17:59:01;4.10;;;2.50;;
55150;SDS011;41041;43.162;20.538;2023-08-07T18:01:29;6.22;;;2.55;;
55150;SDS011;41041;43.162;20.538;2023-08-07T18:03:55;9.02;;;3.20;;
55150;SDS011;41041;43.162;20.538;2023-08-07T18:06:25;7.80;;;2.80;;
55150;SDS011;41041;43.162;20.538;2023-08-07T18:08:52;5.03;;;2.55;;
55150;SDS011;41041;43.162;20.538;2023-08-07T18:11:18;7.13;;;2.47;;
55150;SDS011;41041;43.162;20.538;2023-08-07T18:13:43;5.00;;;2.40;;
55150;SDS011;41041;43.162;20.538;2023-08-07T18:16:28;4.28;;;2.60;;
55150;SDS011;41041;43.162;20.538;2023-08-07T18:18:54;6.22;;;2.20;;
55150;SDS011;41041;43.162;20.538;2023-08-07T18:21:20;4.13;;;2.20;;
55150;SDS011;41041;43.162;20.538;2023-08-07T18:23:47;5.55;;;2.22;;
55150;SDS011;41041;43.162;20.538;2023-08-07T18:26:13;7.93;;;2.65;;
55150;SDS011;41041;43.162;20.538;2023-08-07T18:28:40;7.18;;;2.30;;
55150;SDS011;41041;43.162;20.538;2023-08-07T18:31:06;6.22;;;2.47;;
55150;SDS011;41041;43.162;20.538;2023-08-07T18:33:32;4.15;;;2.17;;
55150;SDS011;41041;43.162;20.538;2023-08-07T18:35:58;5.85;;;2.63;;
55150;SDS011;41041;43.162;20.538;2023-08-07T18:38:28;4.70;;;2.50;;
55150;SDS011;41041;43.162;20.538;2023-08-07T18:40:54;5.13;;;2.40;;
55150;SDS011;41041;43.162;20.538;2023-08-07T18:43:19;9.20;;;3.03;;
55150;SDS011;41041;43.162;20.538;2023-08-07T18:45:45;5.38;;;2.35;;
55150;SDS011;41041;43.162;20.538;2023-08-07T18:48:11;5.15;;;2.28;;
55150;SDS011;41041;43.162;20.538;2023-08-07T18:50:37;5.22;;;2.90;;
55150;SDS011;41041;43.162;20.538;2023-08-07T18:53:05;4.47;;;2.70;;
55150;SDS011;41041;43.162;20.538;2023-08-07T18:55:31;4.60;;;2.65;;
55150;SDS011;41041;43.162;20.538;2023-08-07T18:57:59;4.82;;;2.60;;
55150;SDS011;41041;43.162;20.538;2023-08-07T19:00:25;5.85;;;2.53;;
55150;SDS011;41041;43.162;20.538;2023-08-07T19:02:51;4.50;;;2.60;;
55150;SDS011;41041;43.162;20.538;2023-08-07T19:05:17;4.18;;;2.45;;
55150;SDS011;41041;43.162;20.538;2023-08-07T19:07:43;12.52;;;3.15;;
55150;SDS011;41041;43.162;20.538;2023-08-07T19:10:09;6.85;;;3.20;;
55150;SDS011;41041;43.162;20.538;2023-08-07T19:12:35;6.47;;;2.67;;
55150;SDS011;41041;43.162;20.538;2023-08-07T19:15:02;5.40;;;2.50;;
55150;SDS011;41041;43.162;20.538;2023-08-07T19:17:29;4.35;;;2.20;;
55150;SDS011;41041;43.162;20.538;2023-08-07T19:19:55;3.30;;;2.03;;
55150;SDS011;41041;43.162;20.538;2023-08-07T19:22:21;6.55;;;2.25;;
55150;SDS011;41041;43.162;20.538;2023-08-07T19:24:49;3.40;;;2.20;;
55150;SDS011;41041;43.162;20.538;2023-08-07T19:27:14;5.70;;;2.42;;
55150;SDS011;41041;43.162;20.538;2023-08-07T19:29:40;4.78;;;2.03;;
55150;SDS011;41041;43.162;20.538;2023-08-07T19:32:06;5.75;;;2.17;;
55150;SDS011;41041;43.162;20.538;2023-08-07T19:34:32;3.38;;;2.20;;
55150;SDS011;41041;43.162;20.538;2023-08-07T19:36:59;5.72;;;2.05;;
55150;SDS011;41041;43.162;20.538;2023-08-07T19:39:25;5.75;;;2.90;;
55150;SDS011;41041;43.162;20.538;2023-08-07T19:41:51;3.80;;;2.40;;
55150;SDS011;41041;43.162;20.538;2023-08-07T19:44:18;2.95;;;1.90;;
55150;SDS011;41041;43.162;20.538;2023-08-07T19:46:44;4.40;;;2.30;;
55150;SDS011;41041;43.162;20.538;2023-08-07T19:49:10;8.25;;;2.70;;
55150;SDS011;41041;43.162;20.538;2023-08-07T19:51:35;4.13;;;2.60;;
55150;SDS011;41041;43.162;20.538;2023-08-07T19:54:01;4.15;;;2.63;;
55150;SDS011;41041;43.162;20.538;2023-08-07T19:56:27;3.90;;;2.35;;
55150;SDS011;41041;43.162;20.538;2023-08-07T20:02:16;4.57;;;2.33;;
55150;SDS011;41041;43.162;20.538;2023-08-07T20:04:41;7.72;;;4.45;;
55150;SDS011;41041;43.162;20.538;2023-08-07T20:07:07;6.97;;;2.80;;
55150;SDS011;41041;43.162;20.538;2023-08-07T20:09:33;5.90;;;2.35;;
55150;SDS011;41041;43.162;20.538;2023-08-07T20:12:03;8.00;;;2.50;;
55150;SDS011;41041;43.162;20.538;2023-08-07T20:14:48;5.00;;;2.90;;
55150;SDS011;41041;43.162;20.538;2023-08-07T20:17:14;6.00;;;2.63;;
55150;SDS011;41041;43.162;20.538;2023-08-07T20:19:40;4.25;;;2.55;;
55150;SDS011;41041;43.162;20.538;2023-08-07T20:22:06;7.72;;;3.08;;
55150;SDS011;41041;43.162;20.538;2023-08-07T20:24:32;4.80;;;2.70;;
55150;SDS011;41041;43.162;20.538;2023-08-07T20:26:58;4.65;;;2.70;;
55150;SDS011;41041;43.162;20.538;2023-08-07T20:29:24;5.15;;;2.75;;
55150;SDS011;41041;43.162;20.538;2023-08-07T20:31:51;5.82;;;2.50;;
55150;SDS011;41041;43.162;20.538;2023-08-07T20:34:17;5.53;;;2.65;;
55150;SDS011;41041;43.162;20.538;2023-08-07T20:36:42;4.78;;;2.85;;
55150;SDS011;41041;43.162;20.538;2023-08-07T20:39:09;6.63;;;2.53;;
55150;SDS011;41041;43.162;20.538;2023-08-07T20:41:35;3.72;;;2.30;;
55150;SDS011;41041;43.162;20.538;2023-08-07T20:44:02;3.17;;;1.88;;
55150;SDS011;41041;43.162;20.538;2023-08-07T20:46:29;6.80;;;2.42;;
55150;SDS011;41041;43.162;20.538;2023-08-07T20:48:56;4.25;;;1.80;;
55150;SDS011;41041;43.162;20.538;2023-08-07T20:51:21;5.43;;;2.10;;
55150;SDS011;41041;43.162;20.538;2023-08-07T20:53:52;3.17;;;2.20;;
55150;SDS011;41041;43.162;20.538;2023-08-07T20:58:44;6.47;;;3.00;;
55150;SDS011;41041;43.162;20.538;2023-08-07T21:01:10;7.22;;;3.20;;
55150;SDS011;41041;43.162;20.538;2023-08-07T21:03:35;6.00;;;2.60;;
55150;SDS011;41041;43.162;20.538;2023-08-07T21:06:01;4.00;;;2.20;;
55150;SDS011;41041;43.162;20.538;2023-08-07T21:08:27;3.90;;;2.13;;
55150;SDS011;41041;43.162;20.538;2023-08-07T21:10:53;5.32;;;2.03;;
55150;SDS011;41041;43.162;20.538;2023-08-07T21:13:19;2.60;;;2.10;;
55150;SDS011;41041;43.162;20.538;2023-08-07T21:15:46;5.20;;;2.10;;
55150;SDS011;41041;43.162;20.538;2023-08-07T21:18:12;6.00;;;3.97;;
55150;SDS011;41041;43.162;20.538;2023-08-07T21:20:38;7.25;;;4.57;;
55150;SDS011;41041;43.162;20.538;2023-08-07T21:23:05;6.65;;;4.93;;
55150;SDS011;41041;43.162;20.538;2023-08-07T21:25:33;5.57;;;3.22;;
55150;SDS011;41041;43.162;20.538;2023-08-07T21:27:59;6.80;;;3.25;;
55150;SDS011;41041;43.162;20.538;2023-08-07T21:30:25;5.28;;;2.90;;
55150;SDS011;41041;43.162;20.538;2023-08-07T21:32:51;4.75;;;3.20;;
55150;SDS011;41041;43.162;20.538;2023-08-07T21:35:16;5.35;;;3.40;;
55150;SDS011;41041;43.162;20.538;2023-08-07T21:37:42;5.97;;;2.58;;
55150;SDS011;41041;43.162;20.538;2023-08-07T21:40:11;5.85;;;2.65;;
55150;SDS011;41041;43.162;20.538;2023-08-07T21:45:22;4.95;;;2.17;;
55150;SDS011;41041;43.162;20.538;2023-08-07T21:47:55;3.42;;;2.10;;
55150;SDS011;41041;43.162;20.538;2023-08-07T21:50:21;5.90;;;2.20;;
55150;SDS011;41041;43.162;20.538;2023-08-07T21:52:47;4.63;;;2.10;;
55150;SDS011;41041;43.162;20.538;2023-08-07T21:55:12;5.40;;;3.20;;
55150;SDS011;41041;43.162;20.538;2023-08-07T21:57:38;4.32;;;3.05;;
55150;SDS011;41041;43.162;20.538;2023-08-07T22:00:05;5.47;;;2.42;;
55150;SDS011;41041;43.162;20.538;2023-08-07T22:02:46;10.00;;;2.20;;
55150;SDS011;41041;43.162;20.538;2023-08-07T22:05:12;6.38;;;2.47;;
55150;SDS011;41041;43.162;20.538;2023-08-07T22:07:38;8.77;;;3.60;;
55150;SDS011;41041;43.162;20.538;2023-08-07T22:10:05;11.20;;;5.22;;
55150;SDS011;41041;43.162;20.538;2023-08-07T22:12:31;4.53;;;3.00;;
55150;SDS011;41041;43.162;20.538;2023-08-07T22:14:58;11.73;;;6.32;;
55150;SDS011;41041;43.162;20.538;2023-08-07T22:17:25;10.07;;;6.90;;
55150;SDS011;41041;43.162;20.538;2023-08-07T22:19:51;9.93;;;5.28;;
55150;SDS011;41041;43.162;20.538;2023-08-07T22:22:17;6.53;;;4.32;;
55150;SDS011;41041;43.162;20.538;2023-08-07T22:24:43;6.32;;;3.50;;
55150;SDS011;41041;43.162;20.538;2023-08-07T22:27:10;2.53;;;1.35;;
55150;SDS011;41041;43.162;20.538;2023-08-07T22:29:36;5.47;;;1.42;;
55150;SDS011;41041;43.162;20.538;2023-08-07T22:32:02;7.28;;;1.52;;
55150;SDS011;41041;43.162;20.538;2023-08-07T22:34:28;4.10;;;1.20;;
55150;SDS011;41041;43.162;20.538;2023-08-07T22:36:54;8.90;;;1.60;;
55150;SDS011;41041;43.162;20.538;2023-08-07T22:39:21;4.13;;;1.77;;
55150;SDS011;41041;43.162;20.538;2023-08-07T22:41:47;7.00;;;2.10;;
55150;SDS011;41041;43.162;20.538;2023-08-07T22:44:25;3.13;;;2.17;;
55150;SDS011;41041;43.162;20.538;2023-08-07T22:46:51;3.75;;;1.77;;
55150;SDS011;41041;43.162;20.538;2023-08-07T22:49:18;4.00;;;2.00;;
55150;SDS011;41041;43.162;20.538;2023-08-07T22:51:45;4.95;;;1.83;;
55150;SDS011;41041;43.162;20.538;2023-08-07T22:54:11;7.85;;;1.63;;
55150;SDS011;41041;43.162;20.538;2023-08-07T22:56:48;4.70;;;1.42;;
55150;SDS011;41041;43.162;20.538;2023-08-07T22:59:14;2.20;;;1.27;;
55150;SDS011;41041;43.162;20.538;2023-08-07T23:01:40;3.35;;;1.50;;
55150;SDS011;41041;43.162;20.538;2023-08-07T23:04:06;4.47;;;1.55;;
55150;SDS011;41041;43.162;20.538;2023-08-07T23:06:33;3.35;;;1.20;;
55150;SDS011;41041;43.162;20.538;2023-08-07T23:11:30;4.43;;;1.30;;
55150;SDS011;41041;43.162;20.538;2023-08-07T23:13:56;3.92;;;1.33;;
55150;SDS011;41041;43.162;20.538;2023-08-07T23:16:22;4.07;;;1.45;;
55150;SDS011;41041;43.162;20.538;2023-08-07T23:18:48;4.63;;;1.30;;
55150;SDS011;41041;43.162;20.538;2023-08-07T23:21:20;2.00;;;1.30;;
55150;SDS011;41041;43.162;20.538;2023-08-07T23:23:46;6.03;;;1.23;;
55150;SDS011;41041;43.162;20.538;2023-08-07T23:26:13;4.25;;;1.30;;
55150;SDS011;41041;43.162;20.538;2023-08-07T23:28:42;6.05;;;1.40;;
55150;SDS011;41041;43.162;20.538;2023-08-07T23:31:08;2.33;;;1.30;;
55150;SDS011;41041;43.162;20.538;2023-08-07T23:33:34;4.78;;;1.40;;
55150;SDS011;41041;43.162;20.538;2023-08-07T23:36:00;7.80;;;1.50;;
55150;SDS011;41041;43.162;20.538;2023-08-07T23:38:26;3.25;;;1.40;;
55150;SDS011;41041;43.162;20.538;2023-08-07T23:40:52;5.72;;;1.30;;
55150;SDS011;41041;43.162;20.538;2023-08-07T23:43:18;2.22;;;1.10;;
55150;SDS011;41041;43.162;20.538;2023-08-07T23:45:44;7.32;;;1.23;;
55150;SDS011;41041;43.162;20.538;2023-08-07T23:48:11;5.13;;;1.65;;
55150;SDS011;41041;43.162;20.538;2023-08-07T23:50:37;5.35;;;1.45;;
55150;SDS011;41041;43.162;20.538;2023-08-07T23:53:03;3.75;;;1.40;;
55150;SDS011;41041;43.162;20.538;2023-08-07T23:55:29;5.70;;;1.70;;
55150;SDS011;41041;43.162;20.538;2023-08-07T23:57:56;6.00;;;2.20;;
